Terminal Aerodrome Forecast
Issued by NWS Shreveport, LA

Home | Current Version | Previous Version | Text Only | Print | Product List | Glossary On
Versions: 1 2 3 4 5 6 7 8 9 10 11 12
000
FTUS44 KSHV 281100
TAFGGG
TAF
KGGG 281120Z 2812/2912 13003KT P6SM SKC
     FM281400 16008KT P6SM SCT250
     FM281700 19012G18KT P6SM SCT250
     FM290000 17010KT P6SM SCT045 SCT250
      TEMPO 2905/2909 BKN030=

USA.gov is the U.S. government's official web portal to all federal, state and local government web resources and services.